Time;durP1;ratioP1;P1;durP2;ratioP2;P2;SDS_P1;SDS_P2;PMS_P1;PMS_P2;Temp;Humidity;BMP_temperature;BMP_pressure;BME280_temperature;BME280_humidity;BME280_pressure;Samples;Min_cycle;Max_cycle;Signal;HPM_P1;HPM_P2
2023/08/02 00:01:01;;;;;;;18.20;10.30;;;;;;;21.85;100.00;100290.41;106953;1283;58298;-81
2023/08/02 00:03:27;;;;;;;19.10;12.10;;;;;;;21.82;100.00;100295.51;106915;1284;58295;-80
2023/08/02 00:05:55;;;;;;;18.20;11.70;;;;;;;21.78;100.00;100290.11;107036;1284;58295;-81
2023/08/02 00:08:21;;;;;;;17.70;10.80;;;;;;;21.74;100.00;100277.66;106749;1284;61936;-81
2023/08/02 00:10:46;;;;;;;14.30;10.70;;;;;;;21.69;100.00;100286.23;106940;1284;58307;-81
2023/08/02 00:13:12;;;;;;;13.50;10.10;;;;;;;21.64;100.00;100295.85;106589;1285;58323;-81
2023/08/02 00:15:38;;;;;;;14.50;10.60;;;;;;;21.63;100.00;100300.59;106908;1284;58291;-82
2023/08/02 00:18:03;;;;;;;16.40;10.60;;;;;;;21.63;100.00;100299.74;106899;1283;58674;-81
2023/08/02 00:20:29;;;;;;;15.10;10.50;;;;;;;21.63;100.00;100293.63;106997;1284;58451;-81
2023/08/02 00:22:54;;;;;;;17.20;10.70;;;;;;;21.60;100.00;100283.66;106969;1284;74893;-80
2023/08/02 00:25:21;;;;;;;15.60;11.00;;;;;;;21.55;100.00;100284.13;106907;1284;58297;-81
2023/08/02 00:27:47;;;;;;;15.00;10.80;;;;;;;21.50;100.00;100284.59;106906;1284;58289;-80
2023/08/02 00:30:12;;;;;;;18.30;10.30;;;;;;;21.46;100.00;100290.32;106918;1284;58447;-80
2023/08/02 00:32:45;;;;;;;17.00;11.50;;;;;;;21.37;100.00;100298.23;106987;1284;58289;-81
2023/08/02 00:35:11;;;;;;;14.70;10.90;;;;;;;21.34;100.00;100297.95;106894;1284;73125;-81
2023/08/02 00:37:36;;;;;;;19.80;11.40;;;;;;;21.31;100.00;100288.88;106531;1285;58357;-81
2023/08/02 00:40:03;;;;;;;17.10;10.70;;;;;;;21.27;100.00;100290.05;106928;1284;58537;-81
2023/08/02 00:42:29;;;;;;;18.20;10.70;;;;;;;21.25;100.00;100301.25;106933;1284;58215;-81
2023/08/02 00:44:55;;;;;;;17.40;10.50;;;;;;;21.23;100.00;100306.68;106917;1284;58260;-81
2023/08/02 00:47:20;;;;;;;20.60;10.90;;;;;;;21.20;100.00;100312.91;107004;1284;58215;-81
2023/08/02 00:49:46;;;;;;;21.20;11.50;;;;;;;21.20;100.00;100307.81;107007;1284;58597;-81
2023/08/02 00:52:12;;;;;;;17.50;12.10;;;;;;;21.21;100.00;100301.04;106983;1284;58287;-81
2023/08/02 00:54:39;;;;;;;19.50;12.10;;;;;;;21.20;100.00;100293.71;106923;1283;58267;-81
2023/08/02 00:57:05;;;;;;;19.60;13.00;;;;;;;21.11;100.00;100292.37;106940;1284;58260;-81
2023/08/02 00:59:30;;;;;;;19.60;12.30;;;;;;;21.02;100.00;100287.05;106952;1284;58232;-81
2023/08/02 01:01:56;;;;;;;18.70;12.40;;;;;;;20.96;100.00;100287.86;106948;1284;58297;-81
2023/08/02 01:04:22;;;;;;;17.60;12.50;;;;;;;20.93;100.00;100287.91;106972;1283;58297;-81
2023/08/02 01:06:55;;;;;;;19.50;13.00;;;;;;;20.93;100.00;100287.11;106927;1284;58456;-81
2023/08/02 01:09:29;;;;;;;24.40;12.70;;;;;;;20.95;100.00;100279.77;106959;1284;73948;-81
2023/08/02 01:12:05;;;;;;;19.80;13.50;;;;;;;20.99;100.00;100282.89;106872;1284;72158;-81
2023/08/02 01:14:34;;;;;;;21.50;14.00;;;;;;;20.99;100.00;100286.24;106888;1284;72436;-81
2023/08/02 01:17:02;;;;;;;22.30;14.00;;;;;;;20.92;100.00;100278.20;106912;1284;62770;-81
2023/08/02 01:19:27;;;;;;;20.90;14.40;;;;;;;20.88;100.00;100277.88;106559;1286;60909;-81
2023/08/02 01:21:53;;;;;;;21.90;13.90;;;;;;;20.83;100.00;100278.27;106570;1287;58409;-81
2023/08/02 01:24:19;;;;;;;18.10;12.30;;;;;;;20.84;100.00;100274.85;106566;1286;58323;-81
2023/08/02 01:26:47;;;;;;;29.90;14.10;;;;;;;20.85;100.00;100267.94;106515;1287;58237;-81
2023/08/02 01:29:19;;;;;;;21.60;12.90;;;;;;;20.86;100.00;100267.50;106592;1287;58794;-81
2023/08/02 01:31:45;;;;;;;21.30;13.30;;;;;;;20.86;100.00;100261.77;106585;1287;61056;-81
2023/08/02 01:34:12;;;;;;;23.00;13.10;;;;;;;20.87;100.00;100260.06;106220;1288;59627;-81
2023/08/02 01:36:37;;;;;;;22.90;12.40;;;;;;;20.85;100.00;100260.35;106586;1287;72720;-82
2023/08/02 01:39:06;;;;;;;16.90;12.20;;;;;;;20.81;100.00;100252.73;106581;1287;58237;-81
2023/08/02 01:41:32;;;;;;;22.60;13.20;;;;;;;20.75;100.00;100253.64;106539;1287;63153;-82
2023/08/02 01:43:57;;;;;;;19.50;12.40;;;;;;;20.68;100.00;100259.70;106573;1287;58714;-81
2023/08/02 01:46:23;;;;;;;18.30;12.20;;;;;;;20.63;100.00;100255.64;106413;1288;58328;-81
2023/08/02 01:48:48;;;;;;;18.90;13.20;;;;;;;20.61;100.00;100259.77;106574;1287;58248;-80
2023/08/02 01:51:14;;;;;;;19.00;13.10;;;;;;;20.56;100.00;100256.70;106539;1287;58338;-81
2023/08/02 01:53:39;;;;;;;18.40;11.80;;;;;;;20.51;100.00;100258.59;106550;1287;61156;-81
2023/08/02 01:56:05;;;;;;;21.70;13.50;;;;;;;20.48;100.00;100265.52;106314;1287;58776;-81
2023/08/02 01:58:30;;;;;;;21.60;12.50;;;;;;;20.44;100.00;100264.69;106947;1284;58327;-82
2023/08/02 02:00:56;;;;;;;20.20;12.90;;;;;;;20.39;100.00;100269.17;106905;1284;59435;-82
2023/08/02 02:03:21;;;;;;;19.60;12.90;;;;;;;20.35;100.00;100266.29;106982;1284;59183;-81
2023/08/02 02:05:53;;;;;;;17.20;12.00;;;;;;;20.28;100.00;100272.21;106952;1284;74556;-81
2023/08/02 02:08:19;;;;;;;25.70;14.10;;;;;;;20.25;100.00;100271.54;106914;1284;74297;-81
2023/08/02 02:10:51;;;;;;;20.40;13.20;;;;;;;20.22;100.00;100272.67;106938;1284;58441;-81
2023/08/02 02:13:17;;;;;;;20.10;12.90;;;;;;;20.19;100.00;100276.08;106506;1284;60796;-81
2023/08/02 02:15:43;;;;;;;17.90;13.10;;;;;;;20.11;100.00;100277.34;106886;1284;58488;-81
2023/08/02 02:18:08;;;;;;;22.40;14.40;;;;;;;20.06;100.00;100283.56;106954;1284;58377;-80
2023/08/02 02:20:34;;;;;;;18.60;12.90;;;;;;;20.04;100.00;100290.50;106968;1284;58314;-81
2023/08/02 02:22:59;;;;;;;17.10;12.70;;;;;;;20.02;100.00;100290.82;106975;1284;58277;-81
2023/08/02 02:25:25;;;;;;;21.10;13.70;;;;;;;20.01;100.00;100280.64;106973;1284;58485;-81
2023/08/02 02:27:50;;;;;;;18.50;13.60;;;;;;;19.96;100.00;100280.21;106864;1285;58644;-81
2023/08/02 02:30:16;;;;;;;22.70;13.90;;;;;;;19.92;100.00;100286.38;106931;1284;58746;-81
2023/08/02 02:32:41;;;;;;;20.20;13.70;;;;;;;19.91;100.00;100279.09;106599;1286;58430;-81
2023/08/02 02:35:07;;;;;;;23.10;15.10;;;;;;;19.96;100.00;100277.05;106667;1286;58625;-81
2023/08/02 02:37:33;;;;;;;23.50;14.10;;;;;;;19.97;100.00;100290.25;106426;1286;58687;-80
2023/08/02 02:39:58;;;;;;;21.30;14.70;;;;;;;19.99;100.00;100293.69;106701;1286;73846;-81
2023/08/02 02:42:24;;;;;;;23.80;14.70;;;;;;;20.00;100.00;100297.09;106225;1288;58353;-81
2023/08/02 02:44:49;;;;;;;23.40;13.90;;;;;;;20.00;100.00;100305.67;106675;1286;58574;-81
2023/08/02 02:47:15;;;;;;;22.80;14.60;;;;;;;20.02;100.00;100322.58;106697;1286;58393;-81
2023/08/02 02:49:40;;;;;;;25.20;14.60;;;;;;;20.01;100.00;100321.25;106719;1285;58590;-82
2023/08/02 02:52:06;;;;;;;26.90;14.80;;;;;;;20.01;100.00;100315.33;106364;1288;58318;-81
2023/08/02 02:54:32;;;;;;;22.20;14.40;;;;;;;20.06;100.00;100315.07;106638;1286;58295;-81
2023/08/02 02:56:57;;;;;;;21.50;13.50;;;;;;;20.11;100.00;100308.16;106711;1286;58310;-81
2023/08/02 02:59:23;;;;;;;29.00;15.00;;;;;;;20.17;100.00;100309.92;106265;1289;58262;-81
2023/08/02 03:01:49;;;;;;;21.70;14.70;;;;;;;20.21;100.00;100317.30;106285;1290;58447;-81
2023/08/02 03:04:14;;;;;;;21.90;15.10;;;;;;;20.29;100.00;100317.61;106424;1287;62675;-81
2023/08/02 03:06:40;;;;;;;23.70;14.70;;;;;;;20.36;100.00;100318.65;106567;1287;58335;-81
2023/08/02 03:09:05;;;;;;;23.00;14.60;;;;;;;20.45;100.00;100324.16;106610;1287;58381;-81
2023/08/02 03:11:31;;;;;;;21.10;13.90;;;;;;;20.59;100.00;100327.23;106585;1287;58391;-81
2023/08/02 03:13:56;;;;;;;22.10;14.30;;;;;;;20.70;100.00;100324.63;106608;1287;58379;-81
2023/08/02 03:16:22;;;;;;;27.20;15.20;;;;;;;20.83;100.00;100322.22;106569;1287;58339;-81
2023/08/02 03:18:48;;;;;;;22.10;15.10;;;;;;;20.96;100.00;100319.66;106602;1287;58332;-81
2023/08/02 03:21:14;;;;;;;23.30;15.50;;;;;;;21.13;100.00;100317.60;106565;1286;58570;-81
2023/08/02 03:23:41;;;;;;;25.10;14.80;;;;;;;21.24;100.00;100312.96;106578;1287;58429;-83
2023/08/02 03:26:07;;;;;;;22.40;15.90;;;;;;;21.32;100.00;100303.15;106533;1287;58672;-81
2023/08/02 03:28:32;;;;;;;25.50;15.10;;;;;;;21.47;100.00;100296.55;106580;1286;58698;-81
2023/08/02 03:30:58;;;;;;;26.00;15.20;;;;;;;21.63;100.00;100299.50;106515;1285;58361;-81
2023/08/02 03:33:23;;;;;;;27.50;15.00;;;;;;;21.77;100.00;100298.94;106671;1286;58310;-82
2023/08/02 03:35:49;;;;;;;26.00;15.40;;;;;;;21.95;100.00;100297.18;106336;1286;58287;-82
2023/08/02 03:38:14;;;;;;;20.40;15.00;;;;;;;22.15;100.00;100295.45;106658;1285;58358;-82
2023/08/02 03:40:40;;;;;;;26.30;15.40;;;;;;;22.33;100.00;100292.77;106346;1286;58638;-82
2023/08/02 03:43:05;;;;;;;22.70;15.10;;;;;;;22.52;100.00;100287.55;106705;1286;58227;-81
2023/08/02 03:45:31;;;;;;;22.50;14.10;;;;;;;22.77;100.00;100287.86;106711;1286;62159;-82
2023/08/02 03:47:56;;;;;;;24.80;14.50;;;;;;;23.18;100.00;100284.13;106723;1286;58257;-82
2023/08/02 03:50:21;;;;;;;21.00;13.40;;;;;;;23.72;100.00;100280.39;106701;1286;58335;-82
2023/08/02 03:52:48;;;;;;;22.20;14.30;;;;;;;24.41;100.00;100273.63;106669;1286;58353;-82
2023/08/02 03:55:14;;;;;;;24.00;14.20;;;;;;;25.07;100.00;100273.70;106626;1286;59106;-82
2023/08/02 03:57:39;;;;;;;25.70;14.20;;;;;;;25.79;100.00;100275.66;106706;1286;58335;-83
2023/08/02 04:00:06;;;;;;;24.20;14.50;;;;;;;26.40;100.00;100272.20;106669;1285;75131;-82
2023/08/02 04:02:32;;;;;;;19.90;14.60;;;;;;;26.80;100.00;100268.70;106841;1284;58261;-82
2023/08/02 04:04:57;;;;;;;24.60;13.30;;;;;;;27.17;100.00;100268.13;106639;1283;58209;-82
2023/08/02 04:07:25;;;;;;;22.40;13.80;;;;;;;27.86;100.00;100263.51;106959;1284;58264;-82
2023/08/02 04:09:51;;;;;;;22.90;14.50;;;;;;;28.73;100.00;100262.84;106945;1284;58106;-82
2023/08/02 04:12:17;;;;;;;23.70;13.80;;;;;;;29.51;100.00;100255.30;106968;1284;58265;-83
2023/08/02 04:14:44;;;;;;;21.90;14.20;;;;;;;30.08;100.00;100247.38;106951;1283;58210;-83
2023/08/02 04:17:11;;;;;;;20.60;13.90;;;;;;;30.42;100.00;100243.95;106952;1284;58727;-82
2023/08/02 04:19:37;;;;;;;22.60;15.00;;;;;;;30.67;100.00;100244.77;106916;1284;58144;-82
2023/08/02 04:22:03;;;;;;;22.50;15.10;;;;;;;30.30;100.00;100243.98;106516;1284;58289;-82
2023/08/02 04:24:29;;;;;;;22.60;14.80;;;;;;;30.01;100.00;100249.30;106959;1284;58684;-82
2023/08/02 04:26:54;;;;;;;24.10;14.60;;;;;;;30.17;100.00;100252.60;106951;1283;58265;-82
2023/08/02 04:29:20;;;;;;;22.40;14.90;;;;;;;30.11;100.00;100253.71;106935;1284;58535;-83
2023/08/02 04:31:45;;;;;;;22.20;16.30;;;;;;;29.70;100.00;100257.52;107005;1284;58204;-82
2023/08/02 04:34:11;;;;;;;25.50;17.60;;;;;;;29.22;100.00;100252.66;106603;1284;58295;-82
2023/08/02 04:36:36;;;;;;;23.20;17.40;;;;;;;28.69;100.00;100255.86;106953;1284;58264;-82
2023/08/02 04:39:03;;;;;;;24.70;16.70;;;;;;;28.40;100.00;100260.10;106958;1284;58346;-83
2023/08/02 04:41:29;;;;;;;28.10;19.30;;;;;;;28.35;100.00;100261.96;106921;1283;58510;-82
2023/08/02 04:43:55;;;;;;;27.30;18.70;;;;;;;28.19;100.00;100259.27;106901;1284;59130;-85
2023/08/02 04:46:22;;;;;;;31.80;19.90;;;;;;;28.01;100.00;100262.98;106996;1284;58228;-85
2023/08/02 04:48:47;;;;;;;29.90;20.10;;;;;;;27.93;100.00;100266.41;106961;1284;58305;-83
2023/08/02 04:51:13;;;;;;;29.10;19.60;;;;;;;27.94;100.00;100265.77;106999;1284;58302;-82
2023/08/02 04:53:38;;;;;;;29.90;19.80;;;;;;;27.87;100.00;100263.04;106913;1283;59949;-82
2023/08/02 04:56:14;;;;;;;30.60;19.70;;;;;;;27.74;100.00;100264.98;106899;1284;58254;-81
2023/08/02 04:58:40;;;;;;;32.20;20.20;;;;;;;27.75;100.00;100269.66;106946;1284;74040;-82
2023/08/02 05:01:06;;;;;;;31.20;20.60;;;;;;;27.84;100.00;100265.71;106967;1283;58293;-82
2023/08/02 05:03:32;;;;;;;27.50;19.00;;;;;;;27.84;100.00;100263.98;106934;1283;58448;-82
2023/08/02 05:05:59;;;;;;;29.80;18.10;;;;;;;27.82;100.00;100265.70;106978;1284;58205;-82
2023/08/02 05:08:25;;;;;;;28.00;19.00;;;;;;;27.88;100.00;100263.21;106550;1284;58304;-81
2023/08/02 05:10:50;;;;;;;29.10;18.00;;;;;;;27.89;100.00;100260.84;106924;1284;58575;-82
2023/08/02 05:13:16;;;;;;;25.00;18.10;;;;;;;27.98;100.00;100262.48;106914;1283;58238;-81
2023/08/02 05:15:41;;;;;;;26.60;18.10;;;;;;;28.11;100.00;100261.77;106815;1285;58325;-82
2023/08/02 05:18:06;;;;;;;27.50;19.20;;;;;;;28.18;100.00;100264.41;106910;1284;74616;-82
2023/08/02 05:20:35;;;;;;;28.80;19.20;;;;;;;28.27;100.00;100260.83;106911;1284;58254;-82
2023/08/02 05:23:00;;;;;;;29.80;18.40;;;;;;;28.38;100.00;100260.40;106917;1284;73490;-82
2023/08/02 05:25:30;;;;;;;29.50;18.60;;;;;;;28.46;100.00;100260.46;106897;1284;58559;-82
2023/08/02 05:27:55;;;;;;;29.20;18.90;;;;;;;28.48;100.00;100261.34;106870;1283;61135;-82
2023/08/02 05:30:21;;;;;;;23.00;16.20;;;;;;;28.57;100.00;100260.11;106927;1284;58363;-82
2023/08/02 05:32:56;;;;;;;22.70;15.70;;;;;;;29.02;100.00;100255.40;106973;1284;58465;-82
2023/08/02 05:35:26;;;;;;;23.90;17.30;;;;;;;29.38;100.00;100254.11;106785;1285;74196;-82
2023/08/02 05:37:52;;;;;;;31.60;17.30;;;;;;;29.57;100.00;100255.05;106905;1284;61446;-83
2023/08/02 05:40:18;;;;;;;30.30;16.50;;;;;;;29.88;100.00;100259.49;106948;1283;58150;-82
2023/08/02 05:42:43;;;;;;;28.20;17.00;;;;;;;30.32;100.00;100261.52;106910;1284;58838;-83
2023/08/02 05:45:10;;;;;;;33.20;16.90;;;;;;;30.80;99.77;100262.52;106941;1284;58220;-82
2023/08/02 05:47:35;;;;;;;32.20;15.90;;;;;;;31.04;99.78;100260.15;106542;1283;58342;-83
2023/08/02 05:50:01;;;;;;;31.80;15.20;;;;;;;31.58;99.16;100265.17;106799;1283;58536;-83
2023/08/02 05:52:27;;;;;;;27.20;14.50;;;;;;;32.58;95.55;100265.71;107004;1283;58250;-83
2023/08/02 05:54:52;;;;;;;17.30;13.20;;;;;;;33.93;89.74;100261.80;106959;1283;58153;-83
2023/08/02 05:57:18;;;;;;;18.30;12.10;;;;;;;35.01;79.45;100258.78;106466;1284;58651;-83
2023/08/02 05:59:43;;;;;;;18.80;12.90;;;;;;;35.63;76.17;100262.59;106960;1284;58262;-84
2023/08/02 06:02:09;;;;;;;17.40;11.50;;;;;;;36.71;71.90;100260.94;106940;1284;58226;-83
2023/08/02 06:04:36;;;;;;;18.70;11.70;;;;;;;37.66;63.94;100261.44;106926;1283;58297;-84
2023/08/02 06:07:03;;;;;;;15.00;11.80;;;;;;;38.30;60.42;100260.83;106941;1283;58245;-84
2023/08/02 06:09:29;;;;;;;24.20;13.70;;;;;;;38.71;55.07;100261.98;106912;1283;58253;-84
2023/08/02 06:11:55;;;;;;;21.60;12.70;;;;;;;38.71;55.34;100264.23;106927;1283;58250;-84
2023/08/02 06:14:20;;;;;;;13.90;11.00;;;;;;;38.91;53.35;100266.11;107010;1283;58220;-84
2023/08/02 06:16:46;;;;;;;14.50;10.60;;;;;;;38.53;50.41;100265.77;106877;1285;58296;-83
2023/08/02 06:19:11;;;;;;;19.10;11.20;;;;;;;37.62;50.90;100272.48;106920;1283;58226;-83
2023/08/02 06:21:37;;;;;;;20.50;10.70;;;;;;;37.95;53.04;100269.57;106931;1284;58152;-83
2023/08/02 06:24:03;;;;;;;14.70;11.00;;;;;;;39.18;52.47;100266.61;106914;1284;58251;-84
2023/08/02 06:26:29;;;;;;;16.10;10.70;;;;;;;40.10;49.48;100261.57;106959;1283;58528;-84
2023/08/02 06:28:55;;;;;;;14.10;10.20;;;;;;;40.48;46.98;100270.02;106973;1284;58271;-84
2023/08/02 06:31:21;;;;;;;14.60;10.30;;;;;;;40.17;47.12;100270.16;106874;1284;61731;-85
2023/08/02 06:33:46;;;;;;;16.90;10.80;;;;;;;40.42;48.27;100268.67;106943;1283;58265;-83
2023/08/02 06:36:12;;;;;;;15.70;10.30;;;;;;;41.21;47.02;100267.26;106893;1284;58316;-84
2023/08/02 06:38:37;;;;;;;13.90;9.90;;;;;;;41.83;46.31;100264.47;106537;1284;550827;-84
2023/08/02 06:41:03;;;;;;;11.70;9.40;;;;;;;42.52;43.48;100260.69;106877;1284;58333;-84
2023/08/02 06:43:29;;;;;;;12.50;9.80;;;;;;;42.87;41.74;100262.34;106949;1283;59148;-84
2023/08/02 06:45:54;;;;;;;11.80;10.20;;;;;;;43.31;41.49;100262.84;106961;1284;73827;-81
2023/08/02 06:48:23;;;;;;;31.80;12.50;;;;;;;43.91;40.48;100260.27;106833;1285;58308;-83
2023/08/02 06:50:49;;;;;;;28.00;13.00;;;;;;;44.35;38.53;100258.90;106910;1284;64783;-82
2023/08/02 06:53:14;;;;;;;20.70;11.20;;;;;;;44.87;38.26;100255.96;106535;1283;58475;-82
2023/08/02 06:55:40;;;;;;;20.80;11.60;;;;;;;45.25;37.87;100256.50;106923;1283;58144;-82
2023/08/02 06:58:05;;;;;;;20.10;11.90;;;;;;;45.38;37.06;100253.63;106918;1283;58388;-82
2023/08/02 07:00:32;;;;;;;20.30;12.10;;;;;;;45.71;36.08;100253.13;106937;1283;58554;-82
2023/08/02 07:03:05;;;;;;;23.10;12.60;;;;;;;46.04;35.61;100253.42;106936;1284;58194;-82
2023/08/02 07:05:31;;;;;;;19.40;12.90;;;;;;;46.31;34.10;100256.70;106918;1284;58129;-82
2023/08/02 07:07:58;;;;;;;25.00;12.50;;;;;;;46.43;33.88;100258.77;106842;1284;58264;-81
2023/08/02 07:10:24;;;;;;;19.90;13.10;;;;;;;46.64;33.58;100258.15;106555;1285;65701;-82
2023/08/02 07:12:50;;;;;;;26.20;13.30;;;;;;;46.77;33.26;100257.41;106866;1284;58713;-82
2023/08/02 07:15:17;;;;;;;21.70;13.30;;;;;;;46.96;33.06;100259.61;106740;1283;58292;-82
2023/08/02 07:17:44;;;;;;;19.40;12.90;;;;;;;47.14;32.84;100258.02;106965;1284;58361;-82
2023/08/02 07:20:10;;;;;;;19.90;13.40;;;;;;;47.14;32.00;100255.15;106932;1283;58243;-82
2023/08/02 07:22:36;;;;;;;26.40;13.80;;;;;;;47.32;31.65;100252.60;106544;1284;58419;-82
2023/08/02 07:25:01;;;;;;;19.40;12.50;;;;;;;47.33;31.13;100251.14;106904;1284;58251;-81
2023/08/02 07:27:27;;;;;;;20.10;12.40;;;;;;;47.31;30.33;100245.02;106942;1283;58157;-82
2023/08/02 07:29:52;;;;;;;26.90;13.30;;;;;;;46.95;30.73;100245.14;106963;1283;58225;-82
2023/08/02 07:32:19;;;;;;;20.20;12.60;;;;;;;46.90;31.24;100244.06;106967;1284;58155;-82
2023/08/02 07:34:44;;;;;;;20.90;12.10;;;;;;;47.15;31.32;100243.54;106497;1284;64638;-82
2023/08/02 07:37:10;;;;;;;18.50;11.90;;;;;;;47.26;31.17;100242.80;106927;1284;58185;-83
2023/08/02 07:39:38;;;;;;;16.90;11.70;;;;;;;47.50;30.78;100243.61;106988;1283;58293;-82
2023/08/02 07:42:04;;;;;;;17.70;11.90;;;;;;;47.78;30.40;100242.70;106950;1283;58288;-82
2023/08/02 07:44:29;;;;;;;17.60;12.50;;;;;;;48.01;29.76;100240.58;106656;1284;58273;-82
2023/08/02 07:46:55;;;;;;;14.10;11.60;;;;;;;48.25;29.65;100240.30;106930;1284;58300;-82
2023/08/02 07:49:20;;;;;;;20.70;12.10;;;;;;;48.23;29.37;100240.53;106804;1285;58303;-82
2023/08/02 07:51:46;;;;;;;19.40;11.90;;;;;;;48.15;29.40;100238.86;107034;1284;58257;-82
2023/08/02 07:54:12;;;;;;;19.00;12.60;;;;;;;48.23;29.35;100240.84;106978;1284;64673;-82
2023/08/02 07:56:37;;;;;;;16.80;11.70;;;;;;;48.35;29.13;100235.80;106900;1284;58250;-82
2023/08/02 07:59:03;;;;;;;17.20;12.20;;;;;;;48.53;28.80;100236.42;106909;1284;58079;-82
2023/08/02 08:01:28;;;;;;;18.50;12.70;;;;;;;48.91;28.72;100235.21;106932;1284;58238;-82
2023/08/02 08:03:54;;;;;;;20.30;12.20;;;;;;;49.10;28.62;100230.42;106576;1285;58202;-81
2023/08/02 08:06:23;;;;;;;18.60;11.90;;;;;;;49.10;28.40;100226.56;106677;1285;58464;-82
2023/08/02 08:08:49;;;;;;;13.10;11.20;;;;;;;49.08;27.98;100228.16;106924;1284;58140;-81
2023/08/02 08:11:15;;;;;;;14.60;10.90;;;;;;;48.99;27.86;100230.45;106961;1283;58252;-82
2023/08/02 08:13:41;;;;;;;18.10;11.60;;;;;;;48.87;27.48;100231.05;106913;1284;58921;-82
2023/08/02 08:16:07;;;;;;;17.00;11.20;;;;;;;48.81;28.16;100237.70;106810;1284;58200;-81
2023/08/02 08:18:33;;;;;;;17.40;12.80;;;;;;;48.83;27.69;100235.40;106910;1283;58306;-82
2023/08/02 08:21:01;;;;;;;18.50;11.90;;;;;;;48.87;27.80;100230.89;106962;1284;58273;-82
2023/08/02 08:23:27;;;;;;;17.30;11.60;;;;;;;48.91;27.74;100227.53;106934;1283;59013;-81
2023/08/02 08:25:53;;;;;;;17.40;12.50;;;;;;;48.84;27.90;100230.20;106930;1284;58278;-82
2023/08/02 08:28:19;;;;;;;16.70;12.00;;;;;;;48.95;27.74;100233.15;106931;1284;58575;-82
2023/08/02 08:30:44;;;;;;;19.70;13.40;;;;;;;49.15;27.20;100225.42;106877;1283;58263;-82
2023/08/02 08:33:10;;;;;;;18.60;12.70;;;;;;;48.95;26.94;100224.25;106926;1285;58301;-81
2023/08/02 08:35:35;;;;;;;20.80;12.00;;;;;;;48.85;27.08;100224.92;106929;1284;66134;-81
2023/08/02 08:38:02;;;;;;;15.50;11.70;;;;;;;48.77;27.04;100228.44;106925;1284;58279;-82
2023/08/02 08:40:27;;;;;;;18.50;12.10;;;;;;;48.67;26.83;100226.15;106932;1284;58239;-81
2023/08/02 08:42:55;;;;;;;17.00;12.10;;;;;;;48.51;27.37;100217.98;106829;1284;58242;-81
2023/08/02 08:45:24;;;;;;;16.80;11.80;;;;;;;48.53;26.94;100215.94;106560;1285;58257;-82
2023/08/02 08:47:51;;;;;;;15.00;12.30;;;;;;;48.53;26.48;100210.63;106995;1284;66037;-83
2023/08/02 08:50:19;;;;;;;16.40;11.80;;;;;;;48.35;26.32;100210.26;106899;1287;65778;-81
2023/08/02 08:52:48;;;;;;;18.40;11.60;;;;;;;47.90;26.21;100211.65;106876;1284;64956;-82
2023/08/02 08:55:15;;;;;;;19.90;11.60;;;;;;;47.69;26.77;100207.61;106913;1284;58294;-81
2023/08/02 08:57:43;;;;;;;16.20;11.30;;;;;;;47.84;27.41;100206.71;106939;1283;58222;-82
2023/08/02 09:00:10;;;;;;;19.70;11.30;;;;;;;47.90;26.66;100204.39;106897;1284;66024;-82
2023/08/02 09:02:38;;;;;;;12.30;9.70;;;;;;;47.91;26.96;100205.52;106980;1284;58065;-81
2023/08/02 09:05:03;;;;;;;16.60;9.00;;;;;;;47.89;26.35;100206.83;106922;1284;64099;-82
2023/08/02 09:07:30;;;;;;;19.80;10.60;;;;;;;47.91;26.33;100205.94;106913;1284;58186;-81
2023/08/02 09:09:56;;;;;;;17.00;10.80;;;;;;;47.71;26.45;100204.27;106913;1283;58256;-81
2023/08/02 09:12:25;;;;;;;16.30;9.70;;;;;;;47.45;26.34;100202.82;106860;1284;58833;-82
2023/08/02 09:15:07;;;;;;;15.80;9.50;;;;;;;47.35;26.47;100200.63;106556;1285;65700;-82
2023/08/02 09:17:49;;;;;;;11.00;8.00;;;;;;;47.50;26.35;100201.08;106893;1284;65077;-81
2023/08/02 09:20:17;;;;;;;12.80;6.40;;;;;;;47.61;26.00;100200.02;106824;1285;58214;-82
2023/08/02 09:22:42;;;;;;;10.50;7.50;;;;;;;47.54;25.22;100197.61;106963;1283;58279;-82
2023/08/02 09:25:25;;;;;;;11.40;8.20;;;;;;;47.35;25.76;100197.88;106924;1285;58482;-81
2023/08/02 09:27:59;;;;;;;12.20;8.80;;;;;;;47.18;25.99;100198.11;106933;1284;65835;-81
2023/08/02 09:30:27;;;;;;;11.70;8.20;;;;;;;46.93;26.36;100198.39;106906;1284;63801;-81
2023/08/02 09:33:06;;;;;;;14.30;7.80;;;;;;;46.64;26.57;100196.33;106891;1284;58549;-81
2023/08/02 09:35:51;;;;;;;14.60;9.10;;;;;;;46.33;26.47;100199.25;106838;1284;58253;-81
2023/08/02 09:38:16;;;;;;;13.10;9.50;;;;;;;45.95;26.99;100200.05;106931;1284;65920;-81
2023/08/02 09:40:47;;;;;;;13.90;9.70;;;;;;;45.73;27.25;100201.05;106939;1285;58205;-81
2023/08/02 09:43:14;;;;;;;15.90;10.40;;;;;;;45.38;27.06;100200.89;106914;1283;63811;-82
2023/08/02 09:45:40;;;;;;;17.20;9.90;;;;;;;45.12;27.32;100200.73;106898;1284;58475;-81
2023/08/02 09:48:05;;;;;;;18.30;9.10;;;;;;;44.97;27.87;100197.48;106837;1285;58242;-81
2023/08/02 09:50:31;;;;;;;17.20;9.50;;;;;;;44.72;27.47;100196.52;106595;1285;58780;-82
2023/08/02 09:52:57;;;;;;;17.20;9.70;;;;;;;44.07;28.48;100192.22;106940;1284;58089;-81
2023/08/02 09:55:22;;;;;;;17.60;8.70;;;;;;;43.83;28.21;100186.80;106932;1284;58226;-81
2023/08/02 09:57:49;;;;;;;17.80;9.40;;;;;;;43.02;28.66;100188.50;106929;1284;58408;-81
2023/08/02 10:00:17;;;;;;;15.70;9.50;;;;;;;42.53;29.77;100192.69;106890;1284;74697;-80
2023/08/02 10:02:43;;;;;;;12.90;8.40;;;;;;;42.75;30.41;100190.35;106941;1284;73198;-81
2023/08/02 10:05:15;;;;;;;15.70;9.10;;;;;;;43.01;30.41;100189.33;106564;1286;58660;-80
2023/08/02 10:07:47;;;;;;;13.50;8.50;;;;;;;43.15;30.38;100191.04;106663;1283;59263;-82
2023/08/02 10:10:18;;;;;;;19.70;8.70;;;;;;;43.06;30.23;100190.58;106914;1285;60202;-81
2023/08/02 10:12:52;;;;;;;16.40;9.10;;;;;;;43.09;30.70;100194.44;106941;1285;74052;-81
2023/08/02 10:15:17;;;;;;;20.40;8.60;;;;;;;43.15;29.94;100192.92;106934;1284;73249;-80
2023/08/02 10:17:44;;;;;;;15.70;8.90;;;;;;;43.06;29.13;100189.13;106941;1285;58272;-81
2023/08/02 10:20:12;;;;;;;14.10;9.60;;;;;;;42.52;29.54;100185.66;106978;1283;58165;-81
2023/08/02 10:22:40;;;;;;;19.70;10.20;;;;;;;42.07;30.35;100193.39;106232;1284;60934;-80
2023/08/02 10:25:06;;;;;;;17.70;9.70;;;;;;;41.53;31.18;100197.78;106960;1285;75656;-81
2023/08/02 10:27:33;;;;;;;19.50;10.60;;;;;;;41.30;31.39;100198.33;106956;1284;58206;-81
2023/08/02 10:29:59;;;;;;;19.80;9.60;;;;;;;41.17;32.13;100195.45;106902;1284;58300;-80
2023/08/02 10:32:25;;;;;;;27.50;10.20;;;;;;;40.91;32.72;100196.36;106957;1284;58588;-81
2023/08/02 10:34:52;;;;;;;17.90;10.10;;;;;;;40.54;33.21;100195.90;106834;1284;58355;-79
2023/08/02 10:37:19;;;;;;;18.60;9.90;;;;;;;40.35;33.79;100198.83;106911;1284;58191;-80
2023/08/02 10:39:47;;;;;;;17.80;10.80;;;;;;;40.14;33.65;100194.68;106890;1285;58253;-80
2023/08/02 10:42:18;;;;;;;17.80;10.40;;;;;;;40.07;33.92;100194.95;106937;1284;73268;-81
2023/08/02 10:45:11;;;;;;;19.70;10.00;;;;;;;40.12;34.96;100192.92;106892;1284;60238;-80
2023/08/02 10:47:36;;;;;;;17.60;10.40;;;;;;;40.38;34.80;100188.42;106227;1290;61238;-82
2023/08/02 10:50:04;;;;;;;15.70;9.00;;;;;;;40.57;34.36;100187.02;106274;1291;58473;-84
2023/08/02 10:52:30;;;;;;;14.80;9.60;;;;;;;40.63;33.58;100184.11;106316;1291;58305;-83
2023/08/02 10:55:03;;;;;;;17.70;10.50;;;;;;;40.58;32.87;100183.42;106243;1291;58305;-83
2023/08/02 10:57:29;;;;;;;21.20;11.60;;;;;;;40.47;33.51;100182.02;106110;1292;61152;-83